createdAt,value
2023-01-19T00:01:34.630Z,-2.00
2023-01-19T00:04:06.722Z,-2.00
2023-01-19T00:06:39.271Z,-2.00
2023-01-19T00:09:11.341Z,-2.00
2023-01-19T00:11:43.351Z,-2.10
2023-01-19T00:14:15.456Z,-2.10
2023-01-19T00:16:47.434Z,-2.10
2023-01-19T00:19:19.461Z,-2.10
2023-01-19T00:21:51.415Z,-2.10
2023-01-19T00:24:23.548Z,-2.20
2023-01-19T00:26:55.596Z,-2.20
2023-01-19T00:29:30.907Z,-2.20
2023-01-19T00:32:05.412Z,-2.20
2023-01-19T00:34:39.650Z,-2.30
2023-01-19T00:37:13.363Z,-2.30
2023-01-19T00:39:46.249Z,-2.30
2023-01-19T00:42:36.677Z,-2.30
2023-01-19T00:45:14.683Z,-2.40
2023-01-19T00:47:54.682Z,-2.40
2023-01-19T00:50:29.831Z,-2.40
2023-01-19T00:53:03.387Z,-2.40
2023-01-19T00:55:35.780Z,-2.40
2023-01-19T00:58:07.836Z,-2.40
2023-01-19T01:00:40.392Z,-2.40
2023-01-19T01:03:12.490Z,-2.40
2023-01-19T01:05:44.663Z,-2.30
2023-01-19T01:08:16.666Z,-2.40
2023-01-19T01:10:48.887Z,-2.40
2023-01-19T01:13:22.592Z,-2.40
2023-01-19T01:15:57.300Z,-2.40
2023-01-19T01:18:29.552Z,-2.40
2023-01-19T01:21:03.529Z,-2.40
2023-01-19T01:23:36.794Z,-2.40
2023-01-19T01:26:08.690Z,-2.40
2023-01-19T01:28:40.721Z,-2.40
2023-01-19T01:31:12.743Z,-2.30
2023-01-19T01:33:44.807Z,-2.30
2023-01-19T01:36:18.994Z,-2.30
2023-01-19T01:38:51.563Z,-2.30
2023-01-19T01:41:25.913Z,-2.30
2023-01-19T01:44:01.696Z,-2.30
2023-01-19T01:46:53.709Z,-2.30
2023-01-19T01:49:25.799Z,-2.40
2023-01-19T01:51:57.986Z,-2.40
2023-01-19T01:54:32.685Z,-2.40
2023-01-19T01:57:13.071Z,-2.40
2023-01-19T01:59:48.313Z,-2.40
2023-01-19T02:02:45.928Z,-2.40
2023-01-19T02:05:35.061Z,-2.40
2023-01-19T02:08:33.660Z,-2.40
2023-01-19T02:11:44.245Z,-2.30
2023-01-19T02:14:39.233Z,-2.40
2023-01-19T02:17:11.463Z,-2.30
2023-01-19T02:19:44.034Z,-2.30
2023-01-19T02:22:35.943Z,-2.20
2023-01-19T02:25:20.614Z,-2.20
2023-01-19T02:27:53.444Z,-2.20
2023-01-19T02:30:25.764Z,-2.20
2023-01-19T02:32:59.299Z,-2.20
2023-01-19T02:35:33.963Z,-2.20
2023-01-19T02:38:09.081Z,-2.20
2023-01-19T02:40:44.907Z,-2.20
2023-01-19T02:43:19.457Z,-2.20
2023-01-19T02:45:52.719Z,-2.20
2023-01-19T02:48:25.432Z,-2.10
2023-01-19T02:51:04.430Z,-2.10
2023-01-19T02:54:12.328Z,-2.10
2023-01-19T02:57:31.433Z,-2.10
2023-01-19T03:00:40.895Z,-2.10
2023-01-19T03:03:46.335Z,-2.20
2023-01-19T03:06:51.303Z,-2.30
2023-01-19T03:09:57.532Z,-2.30
2023-01-19T03:12:47.259Z,-2.40
2023-01-19T03:15:48.904Z,-2.40
2023-01-19T03:18:29.137Z,-2.50
2023-01-19T03:21:07.134Z,-2.50
2023-01-19T03:23:44.163Z,-2.50
2023-01-19T03:26:24.333Z,-2.60
2023-01-19T03:29:02.223Z,-2.60
2023-01-19T03:31:37.897Z,-2.70
2023-01-19T03:34:14.998Z,-2.70
2023-01-19T03:36:51.746Z,-2.70
2023-01-19T03:39:28.942Z,-2.80
2023-01-19T03:42:05.825Z,-2.80
2023-01-19T03:44:43.733Z,-2.80
2023-01-19T03:47:19.296Z,-2.90
2023-01-19T03:49:53.446Z,-2.90
2023-01-19T03:52:33.537Z,-3.00
2023-01-19T03:55:06.681Z,-3.00
2023-01-19T03:57:39.080Z,-3.00
2023-01-19T04:00:11.927Z,-3.00
2023-01-19T04:02:44.791Z,-3.00
2023-01-19T04:05:17.542Z,-3.10
2023-01-19T04:07:50.976Z,-3.10
2023-01-19T04:10:23.490Z,-3.10
2023-01-19T04:12:59.828Z,-3.10
2023-01-19T04:15:33.036Z,-3.10
2023-01-19T04:18:05.393Z,-3.10
2023-01-19T04:20:37.706Z,-3.10
2023-01-19T04:23:10.782Z,-3.10
2023-01-19T04:25:42.706Z,-3.10
2023-01-19T04:28:15.536Z,-3.10
2023-01-19T04:30:51.042Z,-3.10
2023-01-19T04:33:23.992Z,-3.20
2023-01-19T04:35:57.464Z,-3.20
2023-01-19T04:38:29.475Z,-3.30
2023-01-19T04:41:01.459Z,-3.30
2023-01-19T04:43:35.495Z,-3.30
2023-01-19T04:46:07.741Z,-3.30
2023-01-19T04:48:41.317Z,-3.30
2023-01-19T04:51:14.051Z,-3.40
2023-01-19T04:53:46.239Z,-3.40
2023-01-19T04:56:18.240Z,-3.40
2023-01-19T04:58:50.233Z,-3.40
2023-01-19T05:01:22.489Z,-3.50
2023-01-19T05:03:54.823Z,-3.50
2023-01-19T05:06:29.443Z,-3.50
2023-01-19T05:09:01.398Z,-3.50
2023-01-19T05:11:34.062Z,-3.50
2023-01-19T05:14:06.885Z,-3.50
2023-01-19T05:16:39.054Z,-3.60
2023-01-19T05:19:10.997Z,-3.50
2023-01-19T05:21:43.037Z,-3.50
2023-01-19T05:24:15.571Z,-3.50
2023-01-19T05:26:47.778Z,-3.40
2023-01-19T05:29:19.873Z,-3.40
2023-01-19T05:31:52.121Z,-3.30
2023-01-19T05:34:24.459Z,-3.20
2023-01-19T05:36:56.441Z,-3.20
2023-01-19T05:39:29.561Z,-3.10
2023-01-19T05:42:01.856Z,-3.10
2023-01-19T05:44:33.986Z,-3.10
2023-01-19T05:47:06.379Z,-3.10
2023-01-19T05:49:38.431Z,-3.10
2023-01-19T05:52:10.344Z,-3.10
2023-01-19T05:54:42.829Z,-3.10
2023-01-19T05:57:14.912Z,-3.10
2023-01-19T05:59:46.957Z,-3.10
2023-01-19T06:02:19.061Z,-3.00
2023-01-19T06:04:51.339Z,-3.00
2023-01-19T06:07:24.580Z,-2.90
2023-01-19T06:09:58.987Z,-2.80
2023-01-19T06:12:32.545Z,-2.70
2023-01-19T06:15:05.289Z,-2.60
2023-01-19T06:17:57.159Z,-2.50
2023-01-19T06:20:29.191Z,-2.50
2023-01-19T06:23:01.692Z,-2.50
2023-01-19T06:25:34.549Z,-2.50
2023-01-19T06:28:06.563Z,-2.50
2023-01-19T06:30:38.673Z,-2.50
2023-01-19T06:33:11.253Z,-2.50
2023-01-19T06:35:44.385Z,-2.50
2023-01-19T06:38:19.387Z,-2.40
2023-01-19T06:40:58.531Z,-2.40
2023-01-19T06:43:31.516Z,-2.40
2023-01-19T06:46:04.804Z,-2.40
2023-01-19T06:48:36.950Z,-2.40
2023-01-19T06:51:08.862Z,-2.40
2023-01-19T06:53:40.823Z,-2.30
2023-01-19T06:56:13.028Z,-2.30
2023-01-19T06:58:47.316Z,-2.30
2023-01-19T07:01:19.583Z,-2.30
2023-01-19T07:03:51.880Z,-2.30
2023-01-19T07:06:24.149Z,-2.30
2023-01-19T07:08:56.229Z,-2.30
2023-01-19T07:11:32.638Z,-2.30
2023-01-19T07:14:05.107Z,-2.30
2023-01-19T07:16:37.134Z,-2.30
2023-01-19T07:19:10.846Z,-2.30
2023-01-19T07:21:44.904Z,-2.30
2023-01-19T07:24:17.053Z,-2.30
2023-01-19T07:26:50.097Z,-2.30
2023-01-19T07:29:22.183Z,-2.30
2023-01-19T07:31:54.797Z,-2.30
2023-01-19T07:34:27.058Z,-2.30
2023-01-19T07:36:59.112Z,-2.30
2023-01-19T07:39:32.002Z,-2.30
2023-01-19T07:42:04.528Z,-2.30
2023-01-19T07:44:37.246Z,-2.30
2023-01-19T07:47:12.529Z,-2.30
2023-01-19T07:49:59.914Z,-2.40
2023-01-19T07:52:32.092Z,-2.40
2023-01-19T07:55:04.234Z,-2.40
2023-01-19T07:57:37.000Z,-2.40
2023-01-19T08:00:09.679Z,-2.40
2023-01-19T08:02:42.508Z,-2.40
2023-01-19T08:05:17.733Z,-2.30
2023-01-19T08:07:53.258Z,-2.30
2023-01-19T08:10:29.303Z,-2.20
2023-01-19T08:13:05.535Z,-2.10
2023-01-19T08:15:37.871Z,-2.00
2023-01-19T08:18:11.608Z,-1.90
2023-01-19T08:20:52.515Z,-1.90
2023-01-19T08:23:24.596Z,-1.80
2023-01-19T08:25:57.260Z,-1.80
2023-01-19T08:28:29.294Z,-1.70
2023-01-19T08:31:18.987Z,-1.60
2023-01-19T08:33:53.147Z,-1.50
2023-01-19T08:36:25.561Z,-1.50
2023-01-19T08:38:59.053Z,-1.40
2023-01-19T08:41:31.275Z,-1.30
2023-01-19T08:44:03.496Z,-1.30
2023-01-19T08:46:35.790Z,-1.30
2023-01-19T08:49:08.776Z,-1.20
2023-01-19T08:51:41.098Z,-1.20
2023-01-19T08:54:13.591Z,-1.20
2023-01-19T08:56:47.478Z,-1.20
2023-01-19T08:59:19.572Z,-1.10
2023-01-19T09:01:51.765Z,-1.10
2023-01-19T09:04:25.017Z,-1.10
2023-01-19T09:06:57.331Z,-1.10
2023-01-19T09:09:30.339Z,-1.00
2023-01-19T09:12:07.540Z,-0.90
2023-01-19T09:14:39.481Z,-0.80
2023-01-19T09:17:14.600Z,-0.70
2023-01-19T09:19:48.765Z,-0.60
2023-01-19T09:22:21.049Z,-0.50
2023-01-19T09:24:53.207Z,-0.40
2023-01-19T09:27:25.421Z,-0.40
2023-01-19T09:29:57.441Z,-0.30
2023-01-19T09:32:29.690Z,-0.30
2023-01-19T09:35:01.808Z,-0.20
2023-01-19T09:37:34.098Z,-0.20
2023-01-19T09:40:07.523Z,-0.20
2023-01-19T09:42:44.524Z,-0.20
2023-01-19T09:45:37.535Z,-0.10
2023-01-19T09:48:47.958Z,-0.10
2023-01-19T09:51:36.246Z,-0.10
2023-01-19T09:54:17.281Z,0.00
2023-01-19T09:56:54.016Z,0.00
2023-01-19T09:59:28.841Z,0.10
2023-01-19T10:02:20.589Z,0.10
2023-01-19T10:05:24.135Z,0.20
2023-01-19T10:08:18.521Z,0.20
2023-01-19T10:11:51.577Z,0.20
2023-01-19T10:14:56.030Z,0.20
2023-01-19T10:17:58.271Z,0.30
2023-01-19T10:20:47.854Z,0.40
2023-01-19T10:23:44.218Z,0.60
2023-01-19T10:26:53.576Z,0.70
2023-01-19T10:29:36.750Z,0.80
2023-01-19T10:32:13.926Z,0.80
2023-01-19T10:34:57.133Z,0.90
2023-01-19T10:37:38.196Z,1.00
2023-01-19T10:40:11.712Z,1.10
2023-01-19T10:42:51.252Z,1.10
2023-01-19T10:46:02.466Z,1.10
2023-01-19T10:48:55.155Z,1.10
2023-01-19T10:51:28.671Z,1.10
2023-01-19T10:54:03.188Z,1.10
2023-01-19T10:56:37.093Z,1.10
2023-01-19T10:59:30.886Z,1.00
2023-01-19T11:02:22.852Z,1.10
2023-01-19T11:05:24.178Z,1.10
2023-01-19T11:07:58.682Z,1.20
2023-01-19T11:10:30.935Z,1.30
2023-01-19T11:13:13.175Z,1.30
2023-01-19T11:15:57.595Z,1.50
2023-01-19T11:18:38.605Z,1.50
2023-01-19T11:21:16.891Z,1.50
2023-01-19T11:23:56.935Z,1.50
2023-01-19T11:26:43.212Z,1.50
2023-01-19T11:29:26.774Z,1.50
2023-01-19T11:32:21.209Z,1.50
2023-01-19T11:35:54.055Z,1.50
2023-01-19T11:38:43.548Z,1.50
2023-01-19T11:41:19.895Z,1.50
2023-01-19T11:44:21.246Z,1.50
2023-01-19T11:47:01.011Z,1.60
2023-01-19T11:50:08.052Z,1.60
2023-01-19T11:53:04.573Z,1.70
2023-01-19T11:56:11.108Z,1.70
2023-01-19T11:58:48.611Z,1.70
2023-01-19T12:01:25.719Z,1.70
2023-01-19T12:04:23.264Z,1.60
2023-01-19T12:07:07.594Z,1.60
2023-01-19T12:09:46.899Z,1.50
2023-01-19T12:12:30.662Z,1.50
2023-01-19T12:15:21.292Z,1.40
2023-01-19T12:18:31.802Z,1.40
2023-01-19T12:21:10.090Z,1.30
2023-01-19T12:24:06.667Z,1.30
2023-01-19T12:26:59.112Z,1.30
2023-01-19T12:29:35.630Z,1.30
2023-01-19T12:32:13.910Z,1.20
2023-01-19T12:34:55.780Z,1.20
2023-01-19T12:37:41.728Z,1.20
2023-01-19T12:40:28.055Z,1.20
2023-01-19T12:43:05.477Z,1.20
2023-01-19T12:45:39.867Z,1.20
2023-01-19T12:48:26.355Z,1.20
2023-01-19T12:50:58.522Z,1.20
2023-01-19T12:53:31.060Z,1.20
2023-01-19T12:56:08.689Z,1.20
2023-01-19T12:58:49.970Z,1.20
2023-01-19T13:01:24.848Z,1.20
2023-01-19T13:03:59.513Z,1.20
2023-01-19T13:06:47.045Z,1.10
2023-01-19T13:09:38.606Z,1.10
2023-01-19T13:12:25.933Z,1.10
2023-01-19T13:15:45.171Z,1.10
2023-01-19T13:18:26.361Z,1.10
2023-01-19T13:21:28.336Z,1.10
2023-01-19T13:24:08.744Z,1.10
2023-01-19T13:27:03.874Z,1.00
2023-01-19T13:29:41.298Z,1.10
2023-01-19T13:32:18.863Z,1.10
2023-01-19T13:34:59.353Z,1.10
2023-01-19T13:37:39.803Z,1.10
2023-01-19T13:40:22.626Z,1.10
2023-01-19T13:42:59.126Z,1.00
2023-01-19T13:45:40.021Z,1.10
2023-01-19T13:48:22.394Z,1.10
2023-01-19T13:51:17.214Z,1.10
2023-01-19T13:54:01.686Z,1.10
2023-01-19T13:56:33.865Z,1.20
2023-01-19T13:59:12.771Z,1.10
2023-01-19T14:01:46.915Z,1.10
2023-01-19T14:04:33.445Z,1.20
2023-01-19T14:07:22.684Z,1.20
2023-01-19T14:10:05.585Z,1.20
2023-01-19T14:12:58.627Z,1.20
2023-01-19T14:15:35.202Z,1.20
2023-01-19T14:18:18.897Z,1.20
2023-01-19T14:21:07.846Z,1.30
2023-01-19T14:23:48.959Z,1.30
2023-01-19T14:26:43.852Z,1.30
2023-01-19T14:29:25.894Z,1.30
2023-01-19T14:32:18.540Z,1.30
2023-01-19T14:35:14.582Z,1.30
2023-01-19T14:37:54.759Z,1.30
2023-01-19T14:40:27.039Z,1.30
2023-01-19T14:43:06.244Z,1.30
2023-01-19T14:45:47.557Z,1.30
2023-01-19T14:48:22.248Z,1.30
2023-01-19T14:51:03.512Z,1.30
2023-01-19T14:53:39.179Z,1.30
2023-01-19T14:56:31.824Z,1.20
2023-01-19T14:59:09.991Z,1.20
2023-01-19T15:01:42.363Z,1.20
2023-01-19T15:04:14.565Z,1.20
2023-01-19T15:06:47.365Z,1.20
2023-01-19T15:09:19.819Z,1.10
2023-01-19T15:11:52.846Z,1.10
2023-01-19T15:14:25.160Z,1.10
2023-01-19T15:16:59.190Z,1.10
2023-01-19T15:19:31.873Z,1.10
2023-01-19T15:22:13.496Z,1.10
2023-01-19T15:24:45.687Z,1.10
2023-01-19T15:27:17.850Z,1.10
2023-01-19T15:29:50.425Z,1.10
2023-01-19T15:32:22.606Z,1.00
2023-01-19T15:34:55.005Z,1.00
2023-01-19T15:37:27.356Z,1.00
2023-01-19T15:40:00.177Z,1.00
2023-01-19T15:42:33.436Z,1.00
2023-01-19T15:45:36.014Z,0.90
2023-01-19T15:48:14.906Z,0.90
2023-01-19T15:50:47.866Z,0.90
2023-01-19T15:53:21.332Z,1.00
2023-01-19T15:55:57.883Z,0.90
2023-01-19T15:58:30.219Z,0.90
2023-01-19T16:01:02.651Z,0.90
2023-01-19T16:03:35.605Z,0.80
2023-01-19T16:06:08.850Z,0.80
2023-01-19T16:08:42.278Z,0.80
2023-01-19T16:11:16.177Z,0.80
2023-01-19T16:13:49.805Z,0.70
2023-01-19T16:16:33.411Z,0.70
2023-01-19T16:19:05.955Z,0.70
2023-01-19T16:21:38.424Z,0.70
2023-01-19T16:24:10.611Z,0.70
2023-01-19T16:26:42.907Z,0.60
2023-01-19T16:29:15.522Z,0.60
2023-01-19T16:31:48.533Z,0.50
2023-01-19T16:34:22.857Z,0.50
2023-01-19T16:36:57.116Z,0.50
2023-01-19T16:39:29.441Z,0.50
2023-01-19T16:42:01.917Z,0.40
2023-01-19T16:44:34.384Z,0.30
2023-01-19T16:47:06.974Z,0.30
2023-01-19T16:49:39.734Z,0.30
2023-01-19T16:52:13.531Z,0.20
2023-01-19T16:54:45.908Z,0.20
2023-01-19T16:57:18.474Z,0.10
2023-01-19T16:59:51.576Z,0.10
2023-01-19T17:02:23.714Z,0.10
2023-01-19T17:04:56.717Z,0.10
2023-01-19T17:07:31.466Z,0.00
2023-01-19T17:10:04.292Z,0.00
2023-01-19T17:12:37.779Z,0.00
2023-01-19T17:15:10.791Z,-0.10
2023-01-19T17:17:43.187Z,-0.10
2023-01-19T17:20:15.834Z,-0.20
2023-01-19T17:22:48.124Z,-0.20
2023-01-19T17:25:20.493Z,-0.20
2023-01-19T17:27:52.813Z,-0.20
2023-01-19T17:30:26.145Z,-0.20
2023-01-19T17:32:59.468Z,-0.20
2023-01-19T17:35:34.969Z,-0.30
2023-01-19T17:38:07.974Z,-0.30
2023-01-19T17:40:41.424Z,-0.30
2023-01-19T17:43:14.667Z,-0.30
2023-01-19T17:45:48.154Z,-0.40
2023-01-19T17:48:21.374Z,-0.40
2023-01-19T17:50:54.730Z,-0.50
2023-01-19T17:53:37.887Z,-0.50
2023-01-19T17:56:14.127Z,-0.60
2023-01-19T17:58:48.978Z,-0.60
2023-01-19T18:01:24.779Z,-0.70
2023-01-19T18:04:01.006Z,-0.70
2023-01-19T18:06:34.321Z,-0.70
2023-01-19T18:09:17.943Z,-0.80
2023-01-19T18:11:51.348Z,-0.80
2023-01-19T18:14:25.249Z,-0.90
2023-01-19T18:16:57.783Z,-0.90
2023-01-19T18:19:30.190Z,-0.90
2023-01-19T18:22:03.163Z,-0.90
2023-01-19T18:24:51.015Z,-0.90
2023-01-19T18:27:24.047Z,-0.90
2023-01-19T18:29:56.887Z,-0.90
2023-01-19T18:32:29.572Z,-0.90
2023-01-19T18:35:02.720Z,-0.90
2023-01-19T18:37:35.818Z,-0.90
2023-01-19T18:40:09.386Z,-0.90
2023-01-19T18:42:43.345Z,-0.80
2023-01-19T18:45:16.823Z,-0.90
2023-01-19T18:47:49.528Z,-0.80
2023-01-19T18:50:22.435Z,-0.80
2023-01-19T18:52:55.047Z,-0.80
2023-01-19T18:55:29.256Z,-0.70
2023-01-19T18:58:02.174Z,-0.70
2023-01-19T19:00:36.689Z,-0.70
2023-01-19T19:03:10.682Z,-0.70
2023-01-19T19:05:43.765Z,-0.70
2023-01-19T19:08:16.046Z,-0.60
2023-01-19T19:10:48.516Z,-0.60
2023-01-19T19:13:22.248Z,-0.60
2023-01-19T19:16:01.769Z,-0.50
2023-01-19T19:19:03.985Z,-0.50
2023-01-19T19:21:36.851Z,-0.50
2023-01-19T19:24:09.679Z,-0.40
2023-01-19T19:26:44.295Z,-0.40
2023-01-19T19:29:16.627Z,-0.30
2023-01-19T19:31:49.078Z,-0.30
2023-01-19T19:34:21.268Z,-0.30
2023-01-19T19:36:55.722Z,-0.30
2023-01-19T19:39:28.284Z,-0.30
2023-01-19T19:42:00.611Z,-0.30
2023-01-19T19:44:33.858Z,-0.30
2023-01-19T19:47:06.476Z,-0.20
2023-01-19T19:49:52.031Z,-0.30
2023-01-19T19:52:27.749Z,-0.20
2023-01-19T19:54:59.945Z,-0.30
2023-01-19T19:57:32.252Z,-0.30
2023-01-19T20:00:05.379Z,-0.20
2023-01-19T20:02:38.561Z,-0.20
2023-01-19T20:05:10.936Z,-0.20
2023-01-19T20:07:47.226Z,-0.20
2023-01-19T20:10:23.128Z,-0.30
2023-01-19T20:12:57.099Z,-0.30
2023-01-19T20:15:29.436Z,-0.30
2023-01-19T20:18:02.463Z,-0.30
2023-01-19T20:20:36.538Z,-0.30
2023-01-19T20:23:09.174Z,-0.30
2023-01-19T20:25:42.291Z,-0.30
2023-01-19T20:28:15.282Z,-0.30
2023-01-19T20:30:48.355Z,-0.30
2023-01-19T20:33:20.695Z,-0.30
2023-01-19T20:35:54.368Z,-0.20
2023-01-19T20:38:26.976Z,-0.30
2023-01-19T20:40:59.488Z,-0.20
2023-01-19T20:43:31.773Z,-0.30
2023-01-19T20:46:04.723Z,-0.30
2023-01-19T20:48:39.054Z,-0.30
2023-01-19T20:51:13.677Z,-0.30
2023-01-19T20:53:47.285Z,-0.30
2023-01-19T20:56:19.636Z,-0.30
2023-01-19T20:58:52.467Z,-0.30
2023-01-19T21:01:25.922Z,-0.30
2023-01-19T21:03:59.005Z,-0.30
2023-01-19T21:06:32.134Z,-0.30
2023-01-19T21:09:05.153Z,-0.30
2023-01-19T21:11:39.872Z,-0.30
2023-01-19T21:14:12.086Z,-0.40
2023-01-19T21:16:46.233Z,-0.40
2023-01-19T21:19:19.025Z,-0.40
2023-01-19T21:21:51.471Z,-0.40
2023-01-19T21:24:23.845Z,-0.40
2023-01-19T21:26:55.959Z,-0.50
2023-01-19T21:29:28.207Z,-0.40
2023-01-19T21:32:01.239Z,-0.40
2023-01-19T21:34:34.367Z,-0.40
2023-01-19T21:37:07.225Z,-0.40
2023-01-19T21:39:39.593Z,-0.50
2023-01-19T21:42:11.930Z,-0.50
2023-01-19T21:44:44.262Z,-0.40
2023-01-19T21:47:16.637Z,-0.50
2023-01-19T21:49:48.818Z,-0.40
2023-01-19T21:52:21.195Z,-0.50
2023-01-19T21:54:53.332Z,-0.50
2023-01-19T21:57:25.816Z,-0.50
2023-01-19T21:59:58.193Z,-0.50
2023-01-19T22:02:38.619Z,-0.60
2023-01-19T22:05:12.234Z,-0.60
2023-01-19T22:07:44.564Z,-0.60
2023-01-19T22:10:17.221Z,-0.70
2023-01-19T22:12:49.556Z,-0.70
2023-01-19T22:15:21.689Z,-0.70
2023-01-19T22:17:53.779Z,-0.70
2023-01-19T22:20:26.181Z,-0.70
2023-01-19T22:22:58.486Z,-0.80
2023-01-19T22:25:32.809Z,-0.80
2023-01-19T22:28:05.083Z,-0.80
2023-01-19T22:30:37.361Z,-0.90
2023-01-19T22:33:09.532Z,-0.90
2023-01-19T22:35:41.862Z,-0.90
2023-01-19T22:38:13.997Z,-1.00
2023-01-19T22:40:46.204Z,-1.00
2023-01-19T22:43:18.308Z,-1.00
2023-01-19T22:45:50.381Z,-1.00
2023-01-19T22:48:22.419Z,-1.00
2023-01-19T22:50:58.283Z,-1.00
2023-01-19T22:53:33.577Z,-1.00
2023-01-19T22:56:23.691Z,-1.00
2023-01-19T22:58:58.511Z,-1.10
2023-01-19T23:01:34.235Z,-1.10
2023-01-19T23:04:14.859Z,-1.10
2023-01-19T23:06:50.512Z,-1.00
2023-01-19T23:09:22.596Z,-1.00
2023-01-19T23:11:54.681Z,-1.00
2023-01-19T23:14:27.161Z,-1.00
2023-01-19T23:17:00.261Z,-1.00
2023-01-19T23:19:32.452Z,-0.90
2023-01-19T23:22:04.604Z,-0.90
2023-01-19T23:24:36.750Z,-0.90
2023-01-19T23:27:08.826Z,-0.90
2023-01-19T23:29:42.572Z,-0.90
2023-01-19T23:32:14.707Z,-0.80
2023-01-19T23:34:47.654Z,-0.90
2023-01-19T23:37:19.728Z,-0.80
2023-01-19T23:40:13.864Z,-0.80
2023-01-19T23:42:46.043Z,-0.80
2023-01-19T23:45:18.038Z,-0.80
2023-01-19T23:47:50.281Z,-0.80
2023-01-19T23:50:22.339Z,-0.80
2023-01-19T23:52:55.329Z,-0.80
2023-01-19T23:55:27.629Z,-0.80
2023-01-19T23:57:59.670Z,-0.80
